createdAt,value
2023-04-18T00:01:01.900Z,29.92
2023-04-18T00:06:03.909Z,31.63
2023-04-18T00:11:05.770Z,33.47
2023-04-18T00:16:08.743Z,37.22
2023-04-18T00:21:10.683Z,35.70
2023-04-18T00:26:12.752Z,30.05
2023-04-18T00:31:14.916Z,30.27
2023-04-18T00:36:16.741Z,27.67
2023-04-18T00:41:21.886Z,27.65
2023-04-18T00:46:23.808Z,29.30
2023-04-18T00:51:26.348Z,28.85
2023-04-18T00:56:29.462Z,26.17
2023-04-18T01:01:33.815Z,23.08
2023-04-18T01:06:36.815Z,19.60
2023-04-18T01:11:38.694Z,22.17
2023-04-18T01:16:40.522Z,23.63
2023-04-18T01:21:43.993Z,25.27
2023-04-18T01:26:48.247Z,24.13
2023-04-18T01:31:50.235Z,19.65
2023-04-18T01:36:52.121Z,19.35
2023-04-18T01:41:53.930Z,17.73
2023-04-18T01:46:55.890Z,18.88
2023-04-18T01:51:57.837Z,16.13
2023-04-18T01:56:59.630Z,17.58
2023-04-18T02:02:02.616Z,18.27
2023-04-18T02:07:04.791Z,17.10
2023-04-18T02:12:06.874Z,18.70
2023-04-18T02:17:08.822Z,17.25
2023-04-18T02:22:11.251Z,20.13
2023-04-18T02:27:13.121Z,21.83
2023-04-18T02:32:15.077Z,23.45
2023-04-18T02:37:19.442Z,23.65
2023-04-18T02:42:21.310Z,26.70
2023-04-18T02:47:23.131Z,24.38
2023-04-18T02:52:25.709Z,26.38
2023-04-18T02:57:27.587Z,47.65
2023-04-18T03:02:47.957Z,27.85
2023-04-18T03:08:03.721Z,29.52
2023-04-18T03:13:06.255Z,40.50
2023-04-18T03:18:08.714Z,36.65
2023-04-18T03:23:13.507Z,39.25
2023-04-18T03:28:15.549Z,44.53
2023-04-18T03:33:17.451Z,62.30
2023-04-18T03:38:21.448Z,56.20
2023-04-18T03:43:24.118Z,58.03
2023-04-18T03:48:27.127Z,62.22
2023-04-18T03:53:30.097Z,66.93
2023-04-18T03:58:32.066Z,80.63
2023-04-18T04:03:34.578Z,101.45
2023-04-18T04:08:36.685Z,101.30
2023-04-18T04:13:38.785Z,106.28
2023-04-18T04:18:42.374Z,111.22
2023-04-18T04:23:44.350Z,98.60
2023-04-18T04:28:54.471Z,105.88
2023-04-18T04:33:59.836Z,105.93
2023-04-18T04:39:04.258Z,112.10
2023-04-18T04:44:31.566Z,91.45
2023-04-18T04:49:34.326Z,102.65
2023-04-18T04:54:36.396Z,98.63
2023-04-18T04:59:40.703Z,92.25
2023-04-18T05:04:42.936Z,91.53
2023-04-18T05:09:44.905Z,93.70
2023-04-18T05:14:46.704Z,98.28
2023-04-18T05:19:48.551Z,95.45
2023-04-18T05:24:50.370Z,88.80
2023-04-18T05:29:52.789Z,90.00
2023-04-18T05:34:54.918Z,75.75
2023-04-18T05:39:58.699Z,88.35
2023-04-18T05:45:02.056Z,74.95
2023-04-18T05:50:04.182Z,75.38
2023-04-18T05:55:06.641Z,66.72
2023-04-18T06:00:11.815Z,66.38
2023-04-18T06:05:16.702Z,64.47
2023-04-18T06:10:18.764Z,64.38
2023-04-18T06:15:20.568Z,65.80
2023-04-18T06:20:23.270Z,65.93
2023-04-18T06:25:25.964Z,77.85
2023-04-18T06:30:27.807Z,88.43
2023-04-18T06:35:31.394Z,82.18
2023-04-18T06:40:33.337Z,74.68
2023-04-18T06:45:35.755Z,76.22
2023-04-18T06:50:37.736Z,76.22
2023-04-18T06:55:40.835Z,83.30
2023-04-18T07:00:43.425Z,88.00
2023-04-18T07:05:45.518Z,85.38
2023-04-18T07:10:47.363Z,81.47
2023-04-18T07:15:49.192Z,83.95
2023-04-18T07:20:51.024Z,74.43
2023-04-18T07:25:52.902Z,66.47
2023-04-18T07:30:56.998Z,60.42
2023-04-18T07:35:59.202Z,59.63
2023-04-18T07:41:02.143Z,49.95
2023-04-18T07:46:04.162Z,35.67
2023-04-18T07:51:06.048Z,33.38
2023-04-18T07:56:07.871Z,33.58
2023-04-18T08:01:13.564Z,31.70
2023-04-18T08:06:16.844Z,32.45
2023-04-18T08:11:18.680Z,33.95
2023-04-18T08:16:20.792Z,37.50
2023-04-18T08:21:22.589Z,32.90
2023-04-18T08:26:24.572Z,35.38
2023-04-18T08:31:26.670Z,35.55
2023-04-18T08:36:28.790Z,39.97
2023-04-18T08:41:34.319Z,42.25
2023-04-18T08:46:37.248Z,46.53
2023-04-18T08:51:40.323Z,53.40
2023-04-18T08:56:42.331Z,51.95
2023-04-18T09:01:58.812Z,51.45
2023-04-18T09:07:01.445Z,52.78
2023-04-18T09:12:08.134Z,50.47
2023-04-18T09:17:13.243Z,44.30
2023-04-18T09:22:16.343Z,45.72
2023-04-18T09:27:18.822Z,39.30
2023-04-18T09:32:27.001Z,43.90
2023-04-18T09:37:29.409Z,42.95
2023-04-18T09:42:36.677Z,46.80
2023-04-18T09:47:39.073Z,43.42
2023-04-18T09:52:42.793Z,42.20
2023-04-18T09:57:46.634Z,44.88
2023-04-18T10:03:08.823Z,43.88
2023-04-18T10:08:12.757Z,53.45
2023-04-18T10:13:15.203Z,53.83
2023-04-18T10:18:17.286Z,46.38
2023-04-18T10:23:34.969Z,50.35
2023-04-18T10:28:57.522Z,47.45
2023-04-18T10:39:25.614Z,44.70
2023-04-18T10:44:27.674Z,47.53
2023-04-18T10:49:32.893Z,49.28
2023-04-18T10:54:55.180Z,50.80
2023-04-18T10:59:57.915Z,53.92
2023-04-18T11:05:02.220Z,44.65
2023-04-18T11:10:06.274Z,49.00
2023-04-18T11:15:14.527Z,52.08
2023-04-18T11:20:17.146Z,51.08
2023-04-18T11:25:25.244Z,53.30
2023-04-18T11:30:28.027Z,51.85
2023-04-18T11:35:30.039Z,44.38
2023-04-18T11:40:31.965Z,46.30
2023-04-18T11:45:33.794Z,48.00
2023-04-18T11:50:37.248Z,48.00
2023-04-18T11:55:39.213Z,49.10
2023-04-18T12:00:43.844Z,43.60
2023-04-18T12:05:45.810Z,49.00
2023-04-18T12:10:51.675Z,45.88
2023-04-18T12:15:54.554Z,42.30
2023-04-18T12:20:58.604Z,43.22
2023-04-18T12:26:07.703Z,41.97
2023-04-18T12:31:09.703Z,46.45
2023-04-18T12:36:11.773Z,43.08
2023-04-18T12:41:13.580Z,43.13
2023-04-18T12:46:15.436Z,44.75
2023-04-18T12:51:17.301Z,42.42
2023-04-18T12:56:19.297Z,43.75
2023-04-18T13:01:21.202Z,44.20
2023-04-18T13:06:24.558Z,42.38
2023-04-18T13:11:28.755Z,47.75
2023-04-18T13:16:31.263Z,51.03
2023-04-18T13:21:33.099Z,53.05
2023-04-18T13:26:36.156Z,59.67
2023-04-18T13:31:38.005Z,51.80
2023-04-18T13:36:39.898Z,57.15
2023-04-18T13:41:42.361Z,64.20
2023-04-18T13:46:44.277Z,64.35
2023-04-18T13:51:46.671Z,64.57
2023-04-18T13:56:48.471Z,65.22
2023-04-18T14:01:51.403Z,64.15
2023-04-18T14:06:53.313Z,72.80
2023-04-18T14:11:55.482Z,68.85
2023-04-18T14:16:57.376Z,65.90
2023-04-18T14:21:59.167Z,66.65
2023-04-18T14:27:01.854Z,70.78
2023-04-18T14:32:03.860Z,68.38
2023-04-18T14:37:06.310Z,71.10
2023-04-18T14:42:08.141Z,65.72
2023-04-18T14:47:10.037Z,60.65
2023-04-18T14:52:11.893Z,57.92
2023-04-18T14:57:13.732Z,61.90
2023-04-18T15:02:15.669Z,56.15
2023-04-18T15:07:18.185Z,57.38
2023-04-18T15:12:19.990Z,56.17
2023-04-18T15:17:21.878Z,55.15
2023-04-18T15:22:23.699Z,49.53
2023-04-18T15:27:25.643Z,51.50
2023-04-18T15:32:27.532Z,44.10
2023-04-18T15:37:29.330Z,47.20
2023-04-18T15:42:31.131Z,47.75
2023-04-18T15:47:34.038Z,43.42
2023-04-18T15:52:36.614Z,41.10
2023-04-18T15:57:38.811Z,40.75
2023-04-18T16:02:40.831Z,44.20
2023-04-18T16:07:42.977Z,47.65
2023-04-18T16:12:45.135Z,50.92
2023-04-18T16:17:46.981Z,45.22
2023-04-18T16:22:48.965Z,46.72
2023-04-18T16:27:50.965Z,48.13
2023-04-18T16:32:53.101Z,50.25
2023-04-18T16:37:55.031Z,47.67
2023-04-18T16:42:57.244Z,42.55
2023-04-18T16:47:59.184Z,50.70
2023-04-18T16:53:01.724Z,51.45
2023-04-18T16:58:03.503Z,54.42
2023-04-18T17:03:07.286Z,48.63
2023-04-18T17:08:09.127Z,53.67
2023-04-18T17:13:10.861Z,51.58
2023-04-18T17:18:12.517Z,55.80
2023-04-18T17:23:14.245Z,58.92
2023-04-18T17:28:16.353Z,49.65
2023-04-18T17:33:18.028Z,49.95
2023-04-18T17:38:19.646Z,58.65
2023-04-18T17:43:21.485Z,59.03
2023-04-18T17:48:23.109Z,57.28
2023-04-18T17:53:24.741Z,66.88
2023-04-18T17:58:27.111Z,63.72
2023-04-18T18:03:28.939Z,64.55
2023-04-18T18:08:30.780Z,70.80
2023-04-18T18:13:32.804Z,64.28
2023-04-18T18:18:34.962Z,77.20
2023-04-18T18:23:36.580Z,88.30
2023-04-18T18:28:38.288Z,89.22
2023-04-18T18:33:39.974Z,95.18
2023-04-18T18:38:41.857Z,84.10
2023-04-18T18:43:43.471Z,82.97
2023-04-18T18:48:45.190Z,79.68
2023-04-18T18:53:46.912Z,78.90
2023-04-18T18:58:48.542Z,84.68
2023-04-18T19:03:50.532Z,83.25
2023-04-18T19:08:52.258Z,72.55
2023-04-18T19:13:54.054Z,76.90
2023-04-18T19:18:55.742Z,65.25
2023-04-18T19:23:57.351Z,59.08
2023-04-18T19:28:59.043Z,58.20
2023-04-18T19:34:01.092Z,62.03
2023-04-18T19:39:02.756Z,58.40
2023-04-18T19:44:04.634Z,59.15
2023-04-18T19:49:06.273Z,59.22
2023-04-18T19:54:08.012Z,60.88
2023-04-18T19:59:09.766Z,67.13
2023-04-18T20:04:11.547Z,64.28
2023-04-18T20:09:16.868Z,61.55
2023-04-18T20:14:18.706Z,62.22
2023-04-18T20:19:20.319Z,60.05
2023-04-18T20:24:22.040Z,65.15
2023-04-18T20:29:23.713Z,54.30
2023-04-18T20:34:25.373Z,60.45
2023-04-18T20:39:28.025Z,61.47
2023-04-18T20:44:31.107Z,60.40
2023-04-18T20:49:35.229Z,60.38
2023-04-18T20:54:36.838Z,63.45
2023-04-18T20:59:38.501Z,57.38
2023-04-18T21:04:40.696Z,56.42
2023-04-18T21:09:42.408Z,56.72
2023-04-18T21:14:44.033Z,58.90
2023-04-18T21:19:46.466Z,49.95
2023-04-18T21:24:48.103Z,45.70
2023-04-18T21:29:49.731Z,44.90
2023-04-18T21:34:51.427Z,48.58
2023-04-18T21:39:52.992Z,42.72
2023-04-18T21:44:54.901Z,42.85
2023-04-18T21:49:56.610Z,43.42
2023-04-18T21:54:59.210Z,46.70
2023-04-18T22:00:00.833Z,41.92
2023-04-18T22:05:02.885Z,36.00
2023-04-18T22:10:05.853Z,38.72
2023-04-18T22:15:08.059Z,42.83
2023-04-18T22:20:11.205Z,50.10
2023-04-18T22:25:12.844Z,39.88
2023-04-18T22:30:14.716Z,41.38
2023-04-18T22:35:17.580Z,45.08
2023-04-18T22:40:19.324Z,45.10
2023-04-18T22:45:21.074Z,41.83
2023-04-18T22:50:22.780Z,44.35
2023-04-18T22:55:24.463Z,46.85
2023-04-18T23:00:26.185Z,43.55
2023-04-18T23:05:28.545Z,42.58
2023-04-18T23:10:30.362Z,44.83
2023-04-18T23:15:32.253Z,44.15
2023-04-18T23:20:34.297Z,41.55
2023-04-18T23:25:36.217Z,39.10
2023-04-18T23:30:38.153Z,41.58
2023-04-18T23:35:39.978Z,38.90
2023-04-18T23:40:41.792Z,40.80
2023-04-18T23:45:43.626Z,44.03
2023-04-18T23:50:50.309Z,38.28
2023-04-18T23:55:53.709Z,35.97
